Time;durP1;ratioP1;P1;durP2;ratioP2;P2;SDS_P1;SDS_P2;PMS_P1;PMS_P2;Temp;Humidity;BMP_temperature;BMP_pressure;BME280_temperature;BME280_humidity;BME280_pressure;Samples;Min_cycle;Max_cycle;Signal;HPM_P1;HPM_P2
2021/07/03 00:01:33;;;;;;;4.43;3.50;;;;;;;;;;5078034;28;20703;-69
2021/07/03 00:04:01;;;;;;;5.20;3.20;;;;;;;;;;5076995;28;20205;-70
2021/07/03 00:06:28;;;;;;;12.53;3.57;;;;;;;;;;5078906;28;20210;-69
2021/07/03 00:08:57;;;;;;;3.87;3.27;;;;;;;;;;5076671;28;20201;-69
2021/07/03 00:11:25;;;;;;;5.77;3.50;;;;;;;;;;5066446;28;20225;-69
2021/07/03 00:13:53;;;;;;;3.00;2.80;;;;;;;;;;5077961;28;20204;-69
2021/07/03 00:16:20;;;;;;;4.77;3.47;;;;;;;;;;5078783;28;20603;-69
2021/07/03 00:18:48;;;;;;;4.37;3.43;;;;;;;;;;5077891;28;20241;-70
2021/07/03 00:21:16;;;;;;;6.50;3.50;;;;;;;;;;5078831;28;20233;-69
2021/07/03 00:23:44;;;;;;;3.47;3.10;;;;;;;;;;5075854;28;20202;-69
2021/07/03 00:26:13;;;;;;;3.70;3.33;;;;;;;;;;5076731;28;20224;-69
2021/07/03 00:28:40;;;;;;;4.40;3.67;;;;;;;;;;5077667;28;20247;-69
2021/07/03 00:31:08;;;;;;;4.77;3.37;;;;;;;;;;5078304;28;20242;-69
2021/07/03 00:33:36;;;;;;;5.50;3.83;;;;;;;;;;5076893;28;20206;-69
2021/07/03 00:36:04;;;;;;;6.00;3.73;;;;;;;;;;5078673;28;20682;-69
2021/07/03 00:38:32;;;;;;;3.50;3.20;;;;;;;;;;5076840;28;20257;-69
2021/07/03 00:40:59;;;;;;;4.53;3.70;;;;;;;;;;5076885;28;20260;-69
2021/07/03 00:43:28;;;;;;;5.23;3.60;;;;;;;;;;5076261;28;20234;-68
2021/07/03 00:45:56;;;;;;;3.93;3.60;;;;;;;;;;5076962;28;20205;-69
2021/07/03 00:48:24;;;;;;;4.60;3.47;;;;;;;;;;5077203;28;20226;-70
2021/07/03 00:50:51;;;;;;;5.10;3.63;;;;;;;;;;5077523;28;20193;-70
2021/07/03 00:53:19;;;;;;;3.63;3.10;;;;;;;;;;5076960;28;20247;-70
2021/07/03 00:55:47;;;;;;;3.63;3.33;;;;;;;;;;5078353;28;20215;-70
2021/07/03 00:58:14;;;;;;;5.47;4.17;;;;;;;;;;5076193;28;20207;-70
2021/07/03 01:00:43;;;;;;;4.60;4.10;;;;;;;;;;5077111;28;20216;-70
2021/07/03 01:03:11;;;;;;;6.30;4.03;;;;;;;;;;5073985;28;20216;-70
2021/07/03 01:05:39;;;;;;;4.40;3.93;;;;;;;;;;5077478;28;20215;-70
2021/07/03 01:08:06;;;;;;;4.23;3.60;;;;;;;;;;5078216;28;20253;-70
2021/07/03 01:10:34;;;;;;;4.37;3.63;;;;;;;;;;5075490;28;20200;-70
2021/07/03 01:13:02;;;;;;;4.10;3.70;;;;;;;;;;5076292;28;20277;-70
2021/07/03 01:15:30;;;;;;;4.07;3.67;;;;;;;;;;5077485;28;20204;-70
2021/07/03 01:17:59;;;;;;;6.00;4.43;;;;;;;;;;5077424;28;20286;-70
2021/07/03 01:20:27;;;;;;;4.27;3.70;;;;;;;;;;5077084;28;20687;-70
2021/07/03 01:22:56;;;;;;;4.40;3.60;;;;;;;;;;5076799;28;20219;-70
2021/07/03 01:25:25;;;;;;;7.13;3.67;;;;;;;;;;5075486;28;20237;-70
2021/07/03 01:27:58;;;;;;;4.03;3.50;;;;;;;;;;5077570;28;20215;-70
2021/07/03 01:30:26;;;;;;;5.50;4.23;;;;;;;;;;5074202;28;20197;-70
2021/07/03 01:32:54;;;;;;;5.50;3.80;;;;;;;;;;5075909;28;20756;-70
2021/07/03 01:35:25;;;;;;;4.90;3.97;;;;;;;;;;5077596;28;20223;-70
2021/07/03 01:37:53;;;;;;;4.50;3.50;;;;;;;;;;5076732;28;20267;-70
2021/07/03 01:40:22;;;;;;;4.70;3.63;;;;;;;;;;5076155;28;20224;-70
2021/07/03 01:42:50;;;;;;;4.73;3.27;;;;;;;;;;5074511;28;20218;-70
2021/07/03 01:45:18;;;;;;;4.67;3.90;;;;;;;;;;5077457;28;20234;-70
2021/07/03 01:47:46;;;;;;;3.90;3.47;;;;;;;;;;5075787;28;20228;-70
2021/07/03 01:50:14;;;;;;;4.27;3.50;;;;;;;;;;5076889;28;20599;-70
2021/07/03 01:52:42;;;;;;;4.37;3.87;;;;;;;;;;5075750;28;20955;-70
2021/07/03 01:55:10;;;;;;;7.80;3.60;;;;;;;;;;5067522;28;20677;-72
2021/07/03 01:57:39;;;;;;;3.63;3.30;;;;;;;;;;5076779;28;20209;-70
2021/07/03 02:00:08;;;;;;;4.30;3.47;;;;;;;;;;5076213;28;20291;-70
2021/07/03 02:02:36;;;;;;;4.40;3.60;;;;;;;;;;5075629;28;20228;-70
2021/07/03 02:05:05;;;;;;;4.83;3.57;;;;;;;;;;5077594;28;20204;-70
2021/07/03 02:07:33;;;;;;;4.20;3.80;;;;;;;;;;5076350;28;20202;-70
2021/07/03 02:10:00;;;;;;;4.00;3.60;;;;;;;;;;5076065;28;20226;-70
2021/07/03 02:12:28;;;;;;;6.97;3.80;;;;;;;;;;5076618;28;20231;-70
2021/07/03 02:14:57;;;;;;;5.37;3.93;;;;;;;;;;5065572;28;20216;-70
2021/07/03 02:17:25;;;;;;;3.83;3.40;;;;;;;;;;5081285;28;20263;-70
2021/07/03 02:19:53;;;;;;;4.57;3.43;;;;;;;;;;5079996;28;20780;-70
2021/07/03 02:22:20;;;;;;;5.23;3.90;;;;;;;;;;5081184;28;20228;-70
2021/07/03 02:24:48;;;;;;;5.27;3.63;;;;;;;;;;5079550;28;20203;-69
2021/07/03 02:27:16;;;;;;;4.20;3.33;;;;;;;;;;5079839;28;20203;-69
2021/07/03 02:29:45;;;;;;;3.60;3.30;;;;;;;;;;5081105;28;20237;-69
2021/07/03 02:32:14;;;;;;;3.70;3.30;;;;;;;;;;5079125;28;20332;-70
2021/07/03 02:34:41;;;;;;;3.77;3.33;;;;;;;;;;5079618;28;20697;-69
2021/07/03 02:37:09;;;;;;;4.20;3.80;;;;;;;;;;5080566;28;20677;-69
2021/07/03 02:39:37;;;;;;;6.17;4.03;;;;;;;;;;5080019;28;20577;-69
2021/07/03 02:42:04;;;;;;;5.27;3.90;;;;;;;;;;5079167;28;20252;-69
2021/07/03 02:44:32;;;;;;;4.00;3.70;;;;;;;;;;5078090;28;20265;-69
2021/07/03 02:47:00;;;;;;;5.13;3.83;;;;;;;;;;5080455;28;20218;-68
2021/07/03 02:49:29;;;;;;;4.90;4.00;;;;;;;;;;5079790;28;20213;-68
2021/07/03 02:51:57;;;;;;;4.77;4.10;;;;;;;;;;5080661;28;20565;-69
2021/07/03 02:54:24;;;;;;;4.33;3.97;;;;;;;;;;5079551;28;20308;-68
2021/07/03 02:56:57;;;;;;;6.60;4.30;;;;;;;;;;5080452;28;20271;-68
2021/07/03 02:59:25;;;;;;;5.00;4.10;;;;;;;;;;5078779;28;20251;-69
2021/07/03 03:01:52;;;;;;;4.67;4.23;;;;;;;;;;5079180;28;20706;-68
2021/07/03 03:04:20;;;;;;;4.73;4.10;;;;;;;;;;5079451;28;20661;-68
2021/07/03 03:06:50;;;;;;;7.13;4.07;;;;;;;;;;5080166;28;20255;-68
2021/07/03 03:09:17;;;;;;;6.20;4.40;;;;;;;;;;5079390;28;20202;-67
2021/07/03 03:11:45;;;;;;;5.20;4.23;;;;;;;;;;5079174;28;20552;-68
2021/07/03 03:14:13;;;;;;;4.57;4.17;;;;;;;;;;5079236;28;20247;-68
2021/07/03 03:16:41;;;;;;;4.47;4.00;;;;;;;;;;5066718;28;20213;-68
2021/07/03 03:19:08;;;;;;;4.17;3.80;;;;;;;;;;5078348;28;20240;-68
2021/07/03 03:21:36;;;;;;;4.20;3.77;;;;;;;;;;5079902;28;20233;-68
2021/07/03 03:24:05;;;;;;;4.60;4.10;;;;;;;;;;5079200;28;20198;-67
2021/07/03 03:26:33;;;;;;;5.17;4.20;;;;;;;;;;5078822;28;20591;-67
2021/07/03 03:29:01;;;;;;;6.70;4.60;;;;;;;;;;5077338;28;20214;-68
2021/07/03 03:31:29;;;;;;;4.57;3.73;;;;;;;;;;5079270;28;20245;-68
2021/07/03 03:33:57;;;;;;;8.23;4.40;;;;;;;;;;5079055;28;20248;-68
2021/07/03 03:36:25;;;;;;;4.87;4.10;;;;;;;;;;5079312;28;20207;-68
2021/07/03 03:38:53;;;;;;;7.23;4.80;;;;;;;;;;5079768;28;20213;-68
2021/07/03 03:41:22;;;;;;;5.63;4.27;;;;;;;;;;5076886;28;20234;-69
2021/07/03 03:43:51;;;;;;;7.03;4.37;;;;;;;;;;5077813;28;20228;-69
2021/07/03 03:46:19;;;;;;;5.07;4.60;;;;;;;;;;5078448;28;20212;-69
2021/07/03 03:48:47;;;;;;;5.90;5.40;;;;;;;;;;5079678;28;20229;-68
2021/07/03 03:51:15;;;;;;;5.60;4.70;;;;;;;;;;5078653;28;20822;-67
2021/07/03 03:53:43;;;;;;;6.83;4.53;;;;;;;;;;5077749;28;20201;-67
2021/07/03 03:56:10;;;;;;;6.33;4.97;;;;;;;;;;5078842;28;20657;-67
2021/07/03 03:58:42;;;;;;;5.00;4.30;;;;;;;;;;5078534;28;20242;-68
2021/07/03 04:01:10;;;;;;;5.13;4.20;;;;;;;;;;5078895;28;20226;-67
2021/07/03 04:03:37;;;;;;;6.03;5.17;;;;;;;;;;5077166;28;20228;-67
2021/07/03 04:06:05;;;;;;;5.03;4.30;;;;;;;;;;5078966;28;20207;-68
2021/07/03 04:08:34;;;;;;;5.70;4.80;;;;;;;;;;5077414;28;20202;-69
2021/07/03 04:11:02;;;;;;;6.00;5.23;;;;;;;;;;5078287;28;20658;-68
2021/07/03 04:13:29;;;;;;;9.57;5.30;;;;;;;;;;5077976;28;20201;-68
2021/07/03 04:15:59;;;;;;;5.47;4.97;;;;;;;;;;5077920;28;20248;-68
2021/07/03 04:18:26;;;;;;;5.40;4.90;;;;;;;;;;5077992;28;20213;-68
2021/07/03 04:20:54;;;;;;;11.63;5.37;;;;;;;;;;5078977;28;20213;-68
2021/07/03 04:23:22;;;;;;;6.07;4.30;;;;;;;;;;5076980;28;20195;-68
2021/07/03 04:25:50;;;;;;;4.80;4.07;;;;;;;;;;5078846;28;20209;-68
2021/07/03 04:28:18;;;;;;;4.60;4.20;;;;;;;;;;5077758;28;20228;-68
2021/07/03 04:30:46;;;;;;;5.63;5.00;;;;;;;;;;5076093;28;20202;-69
2021/07/03 04:33:15;;;;;;;6.13;4.43;;;;;;;;;;5075795;28;20366;-69
2021/07/03 04:35:43;;;;;;;6.60;4.50;;;;;;;;;;5078395;28;20266;-69
2021/07/03 04:38:10;;;;;;;5.57;5.07;;;;;;;;;;5077041;28;20212;-69
2021/07/03 04:40:38;;;;;;;6.50;4.40;;;;;;;;;;5076222;28;20640;-69
2021/07/03 04:43:06;;;;;;;7.13;5.33;;;;;;;;;;5065391;28;20225;-69
2021/07/03 04:45:33;;;;;;;4.70;4.30;;;;;;;;;;5077960;28;20211;-69
2021/07/03 04:48:01;;;;;;;6.27;5.47;;;;;;;;;;5077739;28;20215;-69
2021/07/03 04:50:30;;;;;;;4.87;4.37;;;;;;;;;;5076855;28;20208;-69
2021/07/03 04:52:58;;;;;;;4.63;4.23;;;;;;;;;;5076589;28;20220;-69
2021/07/03 04:55:25;;;;;;;5.10;4.60;;;;;;;;;;5065547;28;20207;-69
2021/07/03 04:57:53;;;;;;;5.10;4.63;;;;;;;;;;5078182;28;20202;-69
2021/07/03 05:00:21;;;;;;;5.10;4.60;;;;;;;;;;5076906;28;20617;-69
2021/07/03 05:02:48;;;;;;;6.07;5.20;;;;;;;;;;5078038;28;20281;-69
2021/07/03 05:05:16;;;;;;;7.50;5.00;;;;;;;;;;5077129;28;20216;-69
2021/07/03 05:07:45;;;;;;;6.90;6.17;;;;;;;;;;5078222;28;20207;-69
2021/07/03 05:10:13;;;;;;;5.97;5.13;;;;;;;;;;5075621;28;20655;-69
2021/07/03 05:12:41;;;;;;;4.53;4.13;;;;;;;;;;5077157;28;20212;-68
2021/07/03 05:15:10;;;;;;;7.97;5.30;;;;;;;;;;5076518;28;20213;-69
2021/07/03 05:17:38;;;;;;;6.60;4.67;;;;;;;;;;5077101;28;20204;-68
2021/07/03 05:20:07;;;;;;;5.33;4.83;;;;;;;;;;5077717;28;20209;-69
2021/07/03 05:22:35;;;;;;;5.33;4.70;;;;;;;;;;5077177;28;20685;-69
2021/07/03 05:25:05;;;;;;;6.67;4.70;;;;;;;;;;5076265;28;20205;-68
2021/07/03 05:27:33;;;;;;;6.63;4.70;;;;;;;;;;5077662;28;20239;-69
2021/07/03 05:30:01;;;;;;;7.97;4.80;;;;;;;;;;5074849;28;20258;-69
2021/07/03 05:32:28;;;;;;;5.40;4.90;;;;;;;;;;5077293;28;20301;-69
2021/07/03 05:34:56;;;;;;;6.60;5.10;;;;;;;;;;5075943;28;20219;-69
2021/07/03 05:37:24;;;;;;;5.77;4.90;;;;;;;;;;5077413;28;20213;-68
2021/07/03 05:39:51;;;;;;;5.20;4.77;;;;;;;;;;5075624;28;20250;-68
2021/07/03 05:42:21;;;;;;;8.57;5.33;;;;;;;;;;5073951;28;20234;-68
2021/07/03 05:44:48;;;;;;;5.23;4.73;;;;;;;;;;5076008;28;20805;-70
2021/07/03 05:47:16;;;;;;;5.40;4.90;;;;;;;;;;5064797;28;20208;-69
2021/07/03 05:49:44;;;;;;;5.83;5.23;;;;;;;;;;5081294;28;20258;-69
2021/07/03 05:52:11;;;;;;;5.87;4.50;;;;;;;;;;5081126;28;20233;-68
2021/07/03 05:54:39;;;;;;;5.53;5.00;;;;;;;;;;5079966;28;20204;-67
2021/07/03 05:57:07;;;;;;;5.80;4.80;;;;;;;;;;5081511;28;20217;-68
2021/07/03 05:59:36;;;;;;;5.70;4.90;;;;;;;;;;5080771;28;20572;-68
2021/07/03 06:02:04;;;;;;;6.30;4.40;;;;;;;;;;5079592;28;20675;-69
2021/07/03 06:04:32;;;;;;;6.87;4.67;;;;;;;;;;5080166;28;20203;-68
2021/07/03 06:06:59;;;;;;;8.07;5.03;;;;;;;;;;5081371;28;20266;-68
2021/07/03 06:09:27;;;;;;;6.73;5.13;;;;;;;;;;5080979;28;20570;-66
2021/07/03 06:11:55;;;;;;;6.70;5.73;;;;;;;;;;5077709;28;20756;-66
2021/07/03 06:14:22;;;;;;;5.53;4.93;;;;;;;;;;5080232;28;20204;-65
2021/07/03 06:16:51;;;;;;;9.47;6.37;;;;;;;;;;5079798;28;20204;-66
2021/07/03 06:19:21;;;;;;;6.27;5.30;;;;;;;;;;5080110;28;20207;-65
2021/07/03 06:21:49;;;;;;;7.73;4.93;;;;;;;;;;5080879;28;20231;-65
2021/07/03 06:24:17;;;;;;;7.97;5.73;;;;;;;;;;5079216;28;20224;-65
2021/07/03 06:26:44;;;;;;;6.67;5.73;;;;;;;;;;5080855;28;20209;-66
2021/07/03 06:29:12;;;;;;;5.50;5.00;;;;;;;;;;5080075;28;20548;-65
2021/07/03 06:31:40;;;;;;;8.40;6.30;;;;;;;;;;5078591;28;20247;-65
2021/07/03 06:34:09;;;;;;;8.20;5.63;;;;;;;;;;5078658;28;20559;-65
2021/07/03 06:36:37;;;;;;;8.67;5.53;;;;;;;;;;5080030;28;20231;-66
2021/07/03 06:39:05;;;;;;;7.77;5.90;;;;;;;;;;5079675;28;20199;-66
2021/07/03 06:41:33;;;;;;;7.03;5.43;;;;;;;;;;5078777;28;20223;-66
2021/07/03 06:44:01;;;;;;;6.20;5.30;;;;;;;;;;5078262;28;20293;-66
2021/07/03 06:46:29;;;;;;;10.87;6.03;;;;;;;;;;5076596;28;20203;-66
2021/07/03 06:48:57;;;;;;;6.77;6.13;;;;;;;;;;5079923;28;20223;-67
2021/07/03 06:51:27;;;;;;;6.00;5.23;;;;;;;;;;5079414;28;20586;-66
2021/07/03 06:53:57;;;;;;;12.80;5.20;;;;;;;;;;5080560;28;20204;-65
2021/07/03 06:56:25;;;;;;;7.63;5.70;;;;;;;;;;5079653;28;20237;-66
2021/07/03 06:58:52;;;;;;;7.27;5.30;;;;;;;;;;5080004;28;20230;-65
2021/07/03 07:01:20;;;;;;;7.93;5.97;;;;;;;;;;5079095;28;20323;-66
2021/07/03 07:03:48;;;;;;;9.00;6.13;;;;;;;;;;5079762;28;20257;-65
2021/07/03 07:06:16;;;;;;;9.50;5.30;;;;;;;;;;5079364;28;20196;-66
2021/07/03 07:08:45;;;;;;;8.70;5.70;;;;;;;;;;5079998;28;20206;-66
2021/07/03 07:11:12;;;;;;;7.50;5.10;;;;;;;;;;5080037;28;20203;-67
2021/07/03 07:13:40;;;;;;;6.80;5.37;;;;;;;;;;5079432;28;20198;-66
2021/07/03 07:16:08;;;;;;;6.00;5.40;;;;;;;;;;5077100;28;20194;-66
2021/07/03 07:18:36;;;;;;;10.27;5.73;;;;;;;;;;5079971;28;20262;-68
2021/07/03 07:21:04;;;;;;;7.27;5.43;;;;;;;;;;5079668;28;20206;-66
2021/07/03 07:23:32;;;;;;;11.80;4.97;;;;;;;;;;5079042;28;20227;-66
2021/07/03 07:26:01;;;;;;;7.10;4.40;;;;;;;;;;5079639;28;20233;-71
2021/07/03 07:28:29;;;;;;;7.57;4.37;;;;;;;;;;5079420;28;20213;-72
2021/07/03 07:30:56;;;;;;;6.57;4.60;;;;;;;;;;5079079;28;20201;-72
2021/07/03 07:33:24;;;;;;;5.30;4.37;;;;;;;;;;5079426;28;20269;-73
2021/07/03 07:35:52;;;;;;;6.63;4.80;;;;;;;;;;5079312;28;20199;-72
2021/07/03 07:38:19;;;;;;;4.97;4.17;;;;;;;;;;5079934;28;20264;-72
2021/07/03 07:40:47;;;;;;;8.13;4.60;;;;;;;;;;5076628;28;20218;-72
2021/07/03 07:43:16;;;;;;;9.50;4.73;;;;;;;;;;5078825;28;20631;-70
2021/07/03 07:45:44;;;;;;;5.53;4.67;;;;;;;;;;5076001;28;20246;-70
2021/07/03 07:48:12;;;;;;;7.60;4.67;;;;;;;;;;5078968;28;20673;-70
2021/07/03 07:50:40;;;;;;;6.43;4.50;;;;;;;;;;5078892;28;20235;-68
2021/07/03 07:53:07;;;;;;;7.50;5.33;;;;;;;;;;5076667;28;20224;-67
2021/07/03 07:55:35;;;;;;;5.53;4.40;;;;;;;;;;5079344;28;20220;-72
2021/07/03 07:58:03;;;;;;;5.67;4.20;;;;;;;;;;5078802;28;20213;-71
2021/07/03 08:00:32;;;;;;;8.30;5.00;;;;;;;;;;5078143;28;20230;-72
2021/07/03 08:03:00;;;;;;;8.07;5.17;;;;;;;;;;5078115;28;20223;-71
2021/07/03 08:05:28;;;;;;;6.27;4.73;;;;;;;;;;5078560;28;20206;-73
2021/07/03 08:07:55;;;;;;;9.97;5.37;;;;;;;;;;5078573;28;20252;-73
2021/07/03 08:10:27;;;;;;;5.90;4.37;;;;;;;;;;5077077;28;20716;-73
2021/07/03 08:12:55;;;;;;;6.47;4.87;;;;;;;;;;5076563;28;20269;-73
2021/07/03 08:15:23;;;;;;;9.43;4.93;;;;;;;;;;5078068;28;20219;-73
2021/07/03 08:17:52;;;;;;;6.47;4.37;;;;;;;;;;5078697;28;20204;-73
2021/07/03 08:20:21;;;;;;;5.43;4.93;;;;;;;;;;5078219;28;20196;-73
2021/07/03 08:22:49;;;;;;;6.70;4.23;;;;;;;;;;5075074;28;20627;-71
2021/07/03 08:25:18;;;;;;;7.10;3.80;;;;;;;;;;5075591;28;20219;-72
2021/07/03 08:27:46;;;;;;;9.63;4.03;;;;;;;;;;5078211;28;20199;-73
2021/07/03 08:30:14;;;;;;;7.10;5.37;;;;;;;;;;5077735;28;20206;-72
2021/07/03 08:32:42;;;;;;;6.03;4.87;;;;;;;;;;5077732;28;20242;-72
2021/07/03 08:35:12;;;;;;;5.67;4.20;;;;;;;;;;5078521;28;20219;-71
2021/07/03 08:37:41;;;;;;;4.07;3.67;;;;;;;;;;5075936;28;20253;-71
2021/07/03 08:40:09;;;;;;;4.57;3.90;;;;;;;;;;5076463;28;20199;-72
2021/07/03 08:42:37;;;;;;;6.20;4.20;;;;;;;;;;5077786;28;20215;-72
2021/07/03 08:45:06;;;;;;;4.83;4.20;;;;;;;;;;5078041;28;20266;-71
2021/07/03 08:47:34;;;;;;;6.30;4.20;;;;;;;;;;5077492;28;20203;-72
2021/07/03 08:50:02;;;;;;;6.83;4.50;;;;;;;;;;5077423;28;20250;-71
2021/07/03 08:52:31;;;;;;;6.00;4.90;;;;;;;;;;5077465;28;20219;-72
2021/07/03 08:55:07;;;;;;;5.37;4.77;;;;;;;;;;5077705;28;20198;-71
2021/07/03 08:57:41;;;;;;;6.27;4.53;;;;;;;;;;5078116;28;20264;-72
2021/07/03 09:00:09;;;;;;;8.50;5.53;;;;;;;;;;5077163;28;20653;-71
2021/07/03 09:02:38;;;;;;;6.67;5.00;;;;;;;;;;5077291;28;20230;-70
2021/07/03 09:05:17;;;;;;;7.33;5.50;;;;;;;;;;5077338;28;20622;-72
2021/07/03 09:07:46;;;;;;;7.37;5.30;;;;;;;;;;5077427;28;20195;-71
2021/07/03 09:10:19;;;;;;;6.37;5.17;;;;;;;;;;5077344;28;20203;-71
2021/07/03 09:12:49;;;;;;;8.80;4.50;;;;;;;;;;5076822;28;20223;-71
2021/07/03 09:15:18;;;;;;;7.10;5.20;;;;;;;;;;5077116;28;20202;-72
2021/07/03 09:17:47;;;;;;;5.37;4.87;;;;;;;;;;5077173;28;20205;-72
2021/07/03 09:20:21;;;;;;;12.67;5.53;;;;;;;;;;5075007;28;20203;-72
2021/07/03 09:22:50;;;;;;;5.23;4.40;;;;;;;;;;5068249;28;20231;-72
2021/07/03 09:25:18;;;;;;;5.67;4.23;;;;;;;;;;5067726;28;20851;-71
2021/07/03 09:27:46;;;;;;;4.90;4.43;;;;;;;;;;5077471;28;20264;-72
2021/07/03 09:30:15;;;;;;;8.03;5.30;;;;;;;;;;5076770;28;20200;-71
2021/07/03 09:32:48;;;;;;;4.80;4.27;;;;;;;;;;5075769;28;20256;-70
2021/07/03 09:35:17;;;;;;;5.23;4.40;;;;;;;;;;5074267;28;20695;-71
2021/07/03 09:37:45;;;;;;;12.77;5.60;;;;;;;;;;5075987;28;20199;-72
2021/07/03 09:40:15;;;;;;;7.30;5.30;;;;;;;;;;5075941;28;20205;-72
2021/07/03 09:42:43;;;;;;;5.27;4.67;;;;;;;;;;5076063;28;20222;-71
2021/07/03 09:45:12;;;;;;;6.77;5.43;;;;;;;;;;5075586;28;20220;-72
2021/07/03 09:47:39;;;;;;;7.53;5.30;;;;;;;;;;5076858;28;20199;-72
2021/07/03 09:50:09;;;;;;;9.87;5.40;;;;;;;;;;5077353;28;20230;-70
2021/07/03 09:52:38;;;;;;;8.17;5.30;;;;;;;;;;5076860;28;20700;-70
2021/07/03 09:55:06;;;;;;;7.87;5.67;;;;;;;;;;5077484;28;20197;-72
2021/07/03 09:57:36;;;;;;;7.87;5.73;;;;;;;;;;5074539;28;20201;-66
2021/07/03 10:00:06;;;;;;;8.80;6.30;;;;;;;;;;5074631;28;20209;-65
2021/07/03 10:02:44;;;;;;;7.43;6.63;;;;;;;;;;5073455;28;20253;-65
2021/07/03 10:05:12;;;;;;;8.60;6.27;;;;;;;;;;5074161;28;20228;-64
2021/07/03 10:07:42;;;;;;;8.40;6.27;;;;;;;;;;5076960;28;20207;-66
2021/07/03 10:10:13;;;;;;;8.60;6.73;;;;;;;;;;5076337;28;20286;-66
2021/07/03 10:12:44;;;;;;;7.43;5.73;;;;;;;;;;5074765;28;20215;-66
2021/07/03 10:15:26;;;;;;;6.77;5.40;;;;;;;;;;5075928;28;20617;-66
2021/07/03 10:17:54;;;;;;;8.30;6.43;;;;;;;;;;5077014;28;20211;-66
2021/07/03 10:20:22;;;;;;;6.17;5.47;;;;;;;;;;5075715;28;20206;-66
2021/07/03 10:22:53;;;;;;;10.87;6.47;;;;;;;;;;5077145;28;20224;-66
2021/07/03 10:25:26;;;;;;;8.63;5.63;;;;;;;;;;5075385;28;20289;-66
2021/07/03 10:27:56;;;;;;;8.33;6.13;;;;;;;;;;5076404;28;20200;-65
2021/07/03 10:30:26;;;;;;;12.93;7.00;;;;;;;;;;5073257;28;20204;-66
2021/07/03 10:32:57;;;;;;;6.53;5.73;;;;;;;;;;5075493;28;20263;-65
2021/07/03 10:35:26;;;;;;;9.27;6.30;;;;;;;;;;5077671;28;20205;-65
2021/07/03 10:37:55;;;;;;;10.83;6.27;;;;;;;;;;5079564;28;20296;-66
2021/07/03 10:40:23;;;;;;;8.07;6.57;;;;;;;;;;5080049;28;20606;-65
2021/07/03 10:42:53;;;;;;;6.63;5.80;;;;;;;;;;5080727;28;20228;-65
2021/07/03 10:45:23;;;;;;;8.90;6.40;;;;;;;;;;5078372;28;20235;-64
2021/07/03 10:47:51;;;;;;;6.80;6.10;;;;;;;;;;5079290;28;20637;-66
2021/07/03 10:50:20;;;;;;;8.17;5.67;;;;;;;;;;5080753;28;20234;-65
2021/07/03 10:52:48;;;;;;;7.23;5.67;;;;;;;;;;5079677;28;20297;-67
2021/07/03 10:55:26;;;;;;;10.27;6.70;;;;;;;;;;5077705;28;20195;-67
2021/07/03 10:57:54;;;;;;;10.53;7.20;;;;;;;;;;5078130;28;20252;-66
2021/07/03 11:00:23;;;;;;;7.33;6.43;;;;;;;;;;5076885;28;20199;-67
2021/07/03 11:02:51;;;;;;;8.57;6.93;;;;;;;;;;5079023;28;20251;-67
2021/07/03 11:05:19;;;;;;;9.93;6.93;;;;;;;;;;5076855;28;20244;-66
2021/07/03 11:07:47;;;;;;;10.37;7.23;;;;;;;;;;5078999;28;20221;-69
2021/07/03 11:10:16;;;;;;;11.23;7.90;;;;;;;;;;5078211;28;20202;-66
2021/07/03 11:12:45;;;;;;;11.70;8.40;;;;;;;;;;5078334;28;20223;-68
2021/07/03 11:15:14;;;;;;;9.73;7.57;;;;;;;;;;5079336;28;20191;-66
2021/07/03 11:17:43;;;;;;;10.83;7.70;;;;;;;;;;5077404;28;20202;-66
2021/07/03 11:20:21;;;;;;;11.40;7.70;;;;;;;;;;5078891;28;20280;-66
2021/07/03 11:22:49;;;;;;;27.57;17.57;;;;;;;;;;5078889;28;20221;-67
2021/07/03 11:25:25;;;;;;;12.83;8.30;;;;;;;;;;5076138;28;20219;-68
2021/07/03 11:27:54;;;;;;;11.43;7.50;;;;;;;;;;5078342;28;20200;-68
2021/07/03 11:30:23;;;;;;;9.50;7.27;;;;;;;;;;5077732;28;20694;-67
2021/07/03 11:32:53;;;;;;;9.77;7.47;;;;;;;;;;5075937;28;20261;-65
2021/07/03 11:35:21;;;;;;;9.07;7.40;;;;;;;;;;5079593;28;20619;-65
2021/07/03 11:37:49;;;;;;;10.83;8.83;;;;;;;;;;5072369;28;20206;-65
2021/07/03 11:40:18;;;;;;;9.43;7.87;;;;;;;;;;5079794;28;20206;-67
2021/07/03 11:42:47;;;;;;;9.77;8.10;;;;;;;;;;5080045;28;20226;-65
2021/07/03 11:45:16;;;;;;;9.87;8.13;;;;;;;;;;5077207;28;20656;-67
2021/07/03 11:47:44;;;;;;;11.63;8.90;;;;;;;;;;5078644;28;20207;-68
2021/07/03 11:50:15;;;;;;;13.23;9.50;;;;;;;;;;5079728;28;20210;-69
2021/07/03 11:52:44;;;;;;;11.83;8.73;;;;;;;;;;5079831;28;20758;-68
2021/07/03 11:55:12;;;;;;;12.40;9.40;;;;;;;;;;5079442;28;20268;-70
2021/07/03 11:57:40;;;;;;;11.63;8.37;;;;;;;;;;5075832;28;20198;-69
2021/07/03 12:00:09;;;;;;;10.27;8.90;;;;;;;;;;5079177;28;20662;-70
2021/07/03 12:02:37;;;;;;;10.60;8.50;;;;;;;;;;5078914;28;20258;-69
2021/07/03 12:05:06;;;;;;;14.93;9.47;;;;;;;;;;5079183;28;20603;-69
2021/07/03 12:07:36;;;;;;;12.87;9.97;;;;;;;;;;5078863;28;20206;-69
2021/07/03 12:10:05;;;;;;;13.87;9.80;;;;;;;;;;5079077;28;20264;-70
2021/07/03 12:12:33;;;;;;;14.43;9.60;;;;;;;;;;5078135;28;20218;-71
2021/07/03 12:15:01;;;;;;;14.23;10.00;;;;;;;;;;5077474;28;20202;-68
2021/07/03 12:17:29;;;;;;;13.10;9.70;;;;;;;;;;5078773;28;20640;-69
2021/07/03 12:20:04;;;;;;;10.00;8.07;;;;;;;;;;5078991;28;20230;-69
2021/07/03 12:22:32;;;;;;;9.80;8.37;;;;;;;;;;5078451;28;20229;-71
2021/07/03 12:25:11;;;;;;;12.97;7.83;;;;;;;;;;5078882;28;20237;-67
2021/07/03 12:27:39;;;;;;;9.63;7.83;;;;;;;;;;5078270;28;20244;-67
2021/07/03 12:30:08;;;;;;;10.17;8.90;;;;;;;;;;5078251;28;20228;-69
2021/07/03 12:32:44;;;;;;;11.47;8.83;;;;;;;;;;5078320;28;20323;-68
2021/07/03 12:35:13;;;;;;;11.53;8.07;;;;;;;;;;5078386;28;20213;-68
2021/07/03 12:37:41;;;;;;;9.07;7.63;;;;;;;;;;5078625;28;20703;-67
2021/07/03 12:40:12;;;;;;;10.33;7.80;;;;;;;;;;5078587;28;20560;-68
2021/07/03 12:42:40;;;;;;;12.10;8.30;;;;;;;;;;5078406;28;20226;-68
2021/07/03 12:45:11;;;;;;;10.57;8.33;;;;;;;;;;5076612;28;20198;-67
2021/07/03 12:47:39;;;;;;;10.27;8.60;;;;;;;;;;5076756;28;20697;-69
2021/07/03 12:50:08;;;;;;;10.17;8.13;;;;;;;;;;5078295;28;20575;-67
2021/07/03 12:52:37;;;;;;;10.27;8.17;;;;;;;;;;5078025;28;20230;-68
2021/07/03 12:55:07;;;;;;;11.40;8.20;;;;;;;;;;5078325;28;20233;-68
2021/07/03 12:57:39;;;;;;;9.27;7.80;;;;;;;;;;5077700;28;20202;-68
2021/07/03 13:00:08;;;;;;;8.87;7.97;;;;;;;;;;5078078;28;20629;-68
2021/07/03 13:02:36;;;;;;;12.50;9.20;;;;;;;;;;5078042;28;20256;-67
2021/07/03 13:05:05;;;;;;;13.77;8.77;;;;;;;;;;5078216;28;20259;-69
2021/07/03 13:07:33;;;;;;;9.03;8.13;;;;;;;;;;5077810;28;20240;-69
2021/07/03 13:10:01;;;;;;;12.73;8.40;;;;;;;;;;5077841;28;20217;-68
2021/07/03 13:12:30;;;;;;;12.40;9.87;;;;;;;;;;5077664;28;20699;-68
2021/07/03 13:14:59;;;;;;;11.67;9.10;;;;;;;;;;5077266;28;20209;-67
2021/07/03 13:17:27;;;;;;;14.00;10.17;;;;;;;;;;5076945;28;20523;-68
2021/07/03 13:19:54;;;;;;;12.07;8.93;;;;;;;;;;5077818;28;20207;-70
2021/07/03 13:22:22;;;;;;;11.90;8.73;;;;;;;;;;5083129;28;20228;-70
2021/07/03 13:24:50;;;;;;;12.77;9.00;;;;;;;;;;5083874;28;20605;-71
2021/07/03 13:27:17;;;;;;;12.50;9.43;;;;;;;;;;5078400;28;20228;-69
2021/07/03 13:29:45;;;;;;;14.07;10.07;;;;;;;;;;5077451;28;20208;-69
2021/07/03 13:32:14;;;;;;;10.30;9.03;;;;;;;;;;5077601;28;20234;-69
2021/07/03 13:34:43;;;;;;;15.40;9.87;;;;;;;;;;5077968;28;20648;-69
2021/07/03 13:37:11;;;;;;;15.80;10.70;;;;;;;;;;5077934;28;20198;-69
2021/07/03 13:39:39;;;;;;;12.67;9.90;;;;;;;;;;5077916;28;20686;-71
2021/07/03 13:42:06;;;;;;;13.20;9.73;;;;;;;;;;5077664;28;20218;-70
2021/07/03 13:44:34;;;;;;;10.30;7.73;;;;;;;;;;5077098;28;20213;-70
2021/07/03 13:47:02;;;;;;;9.93;7.67;;;;;;;;;;5077696;28;20668;-70
2021/07/03 13:49:31;;;;;;;12.07;8.47;;;;;;;;;;5077319;28;20217;-70
2021/07/03 13:51:59;;;;;;;9.53;7.33;;;;;;;;;;5077673;28;20261;-70
2021/07/03 13:54:26;;;;;;;8.87;7.87;;;;;;;;;;5077674;28;20576;-70
2021/07/03 13:56:57;;;;;;;13.17;8.23;;;;;;;;;;5077564;28;20203;-71
2021/07/03 13:59:25;;;;;;;9.03;7.97;;;;;;;;;;5077408;28;20646;-71
2021/07/03 14:01:52;;;;;;;8.20;7.00;;;;;;;;;;5088683;28;20221;-71
2021/07/03 14:04:20;;;;;;;8.47;7.53;;;;;;;;;;5084742;28;20235;-71
2021/07/03 14:06:49;;;;;;;9.47;7.23;;;;;;;;;;5077588;28;20561;-71
2021/07/03 14:09:17;;;;;;;5.70;5.20;;;;;;;;;;5078479;28;20204;-71
2021/07/03 14:11:45;;;;;;;7.17;6.27;;;;;;;;;;5081120;28;20227;-71
2021/07/03 14:14:13;;;;;;;7.77;6.87;;;;;;;;;;5080579;28;20225;-73
2021/07/03 14:16:40;;;;;;;10.50;6.63;;;;;;;;;;5079422;28;20225;-69
2021/07/03 14:19:08;;;;;;;8.70;6.27;;;;;;;;;;5080838;28;20206;-70
2021/07/03 14:21:36;;;;;;;10.37;5.93;;;;;;;;;;5073396;28;20223;-70
2021/07/03 14:24:05;;;;;;;5.80;4.93;;;;;;;;;;5077709;28;20206;-68
2021/07/03 14:26:36;;;;;;;5.47;4.90;;;;;;;;;;5080935;28;20226;-68
2021/07/03 14:29:04;;;;;;;7.53;5.40;;;;;;;;;;5081071;28;20217;-67
2021/07/03 14:31:32;;;;;;;5.63;4.20;;;;;;;;;;5080648;28;20248;-70
2021/07/03 14:34:00;;;;;;;6.23;4.20;;;;;;;;;;5080839;28;20208;-69
2021/07/03 14:36:28;;;;;;;5.83;4.67;;;;;;;;;;5080714;28;20205;-68
2021/07/03 14:38:56;;;;;;;5.30;3.80;;;;;;;;;;5080850;28;20251;-69
2021/07/03 14:41:25;;;;;;;4.63;3.53;;;;;;;;;;5080560;28;20719;-68
2021/07/03 14:43:52;;;;;;;4.73;3.47;;;;;;;;;;5076236;28;20614;-69
2021/07/03 14:46:20;;;;;;;3.60;3.30;;;;;;;;;;5078938;28;20287;-70
2021/07/03 14:48:48;;;;;;;5.73;4.53;;;;;;;;;;5079551;28;20325;-70